sensor_id;sensor_type;location;lat;lon;timestamp;pressure;altitude;pressure_sealevel;temperature;humidity
72558;BME280;60583;50.094;8.748;2022-10-12T00:00:55;101379.09;;;8.89;77.77
72558;BME280;60583;50.094;8.748;2022-10-12T00:03:21;101384.25;;;8.90;77.99
72558;BME280;60583;50.094;8.748;2022-10-12T00:05:47;101383.41;;;8.82;77.84
72558;BME280;60583;50.094;8.748;2022-10-12T00:08:15;101384.03;;;8.68;78.31
72558;BME280;60583;50.094;8.748;2022-10-12T00:10:41;101386.03;;;8.74;77.89
72558;BME280;60583;50.094;8.748;2022-10-12T00:13:09;101376.91;;;8.68;78.51
72558;BME280;60583;50.094;8.748;2022-10-12T00:15:38;101382.69;;;8.72;78.54
72558;BME280;60583;50.094;8.748;2022-10-12T00:18:05;101377.34;;;8.64;79.22
72558;BME280;60583;50.094;8.748;2022-10-12T00:20:30;101381.03;;;8.63;78.83
72558;BME280;60583;50.094;8.748;2022-10-12T00:22:56;101385.47;;;8.54;78.91
72558;BME280;60583;50.094;8.748;2022-10-12T00:25:21;101378.06;;;8.32;79.56
72558;BME280;60583;50.094;8.748;2022-10-12T00:27:46;101389.59;;;8.41;79.62
72558;BME280;60583;50.094;8.748;2022-10-12T00:30:12;101381.81;;;8.21;79.71
72558;BME280;60583;50.094;8.748;2022-10-12T00:32:38;101388.56;;;8.16;80.07
72558;BME280;60583;50.094;8.748;2022-10-12T00:35:03;101386.28;;;8.21;80.00
72558;BME280;60583;50.094;8.748;2022-10-12T00:37:29;101378.31;;;8.21;80.40
72558;BME280;60583;50.094;8.748;2022-10-12T00:39:54;101383.38;;;8.32;79.61
72558;BME280;60583;50.094;8.748;2022-10-12T00:42:20;101387.56;;;8.34;79.40
72558;BME280;60583;50.094;8.748;2022-10-12T00:44:48;101379.09;;;8.39;78.86
72558;BME280;60583;50.094;8.748;2022-10-12T00:47:19;101380.78;;;8.40;79.39
72558;BME280;60583;50.094;8.748;2022-10-12T00:49:51;101375.28;;;8.42;79.41
72558;BME280;60583;50.094;8.748;2022-10-12T00:52:22;101386.22;;;8.30;79.50
72558;BME280;60583;50.094;8.748;2022-10-12T00:54:52;101383.19;;;8.25;79.46
72558;BME280;60583;50.094;8.748;2022-10-12T00:57:19;101382.06;;;8.28;78.94
72558;BME280;60583;50.094;8.748;2022-10-12T00:59:53;101380.72;;;8.32;79.69
72558;BME280;60583;50.094;8.748;2022-10-12T01:02:21;101375.81;;;8.45;78.77
72558;BME280;60583;50.094;8.748;2022-10-12T01:04:48;101369.78;;;8.35;78.97
72558;BME280;60583;50.094;8.748;2022-10-12T01:07:13;101376.25;;;8.32;79.55
72558;BME280;60583;50.094;8.748;2022-10-12T01:09:40;101380.06;;;8.30;78.61
72558;BME280;60583;50.094;8.748;2022-10-12T01:12:06;101385.47;;;8.20;78.83
72558;BME280;60583;50.094;8.748;2022-10-12T01:14:32;101387.97;;;8.22;79.50
72558;BME280;60583;50.094;8.748;2022-10-12T01:17:08;101388.56;;;8.16;79.40
72558;BME280;60583;50.094;8.748;2022-10-12T01:22:25;101391.59;;;8.21;79.46
72558;BME280;60583;50.094;8.748;2022-10-12T01:25:08;101385.63;;;8.19;78.68
72558;BME280;60583;50.094;8.748;2022-10-12T01:27:46;101384.59;;;8.12;78.81
72558;BME280;60583;50.094;8.748;2022-10-12T01:30:20;101381.53;;;7.99;79.95
72558;BME280;60583;50.094;8.748;2022-10-12T01:35:41;101384.75;;;7.85;79.94
72558;BME280;60583;50.094;8.748;2022-10-12T01:38:20;101378.72;;;7.75;80.66
72558;BME280;60583;50.094;8.748;2022-10-12T01:41:21;101378.78;;;7.83;80.21
72558;BME280;60583;50.094;8.748;2022-10-12T01:43:50;101380.91;;;7.79;81.35
72558;BME280;60583;50.094;8.748;2022-10-12T01:48:46;101374.44;;;7.56;81.71
72558;BME280;60583;50.094;8.748;2022-10-12T01:51:16;101387.28;;;7.68;81.78
72558;BME280;60583;50.094;8.748;2022-10-12T01:54:10;101375.47;;;7.63;81.00
72558;BME280;60583;50.094;8.748;2022-10-12T01:56:46;101377.50;;;7.69;81.24
72558;BME280;60583;50.094;8.748;2022-10-12T01:59:30;101369.75;;;7.76;80.99
72558;BME280;60583;50.094;8.748;2022-10-12T02:07:19;101372.56;;;7.48;81.27
72558;BME280;60583;50.094;8.748;2022-10-12T02:09:46;101364.59;;;7.48;80.68
72558;BME280;60583;50.094;8.748;2022-10-12T02:12:18;101365.06;;;7.44;80.88
72558;BME280;60583;50.094;8.748;2022-10-12T02:14:49;101367.91;;;7.50;80.76
72558;BME280;60583;50.094;8.748;2022-10-12T02:17:17;101369.22;;;7.46;81.56
72558;BME280;60583;50.094;8.748;2022-10-12T02:19:57;101357.94;;;7.44;82.48
72558;BME280;60583;50.094;8.748;2022-10-12T02:22:26;101346.13;;;7.39;81.79
72558;BME280;60583;50.094;8.748;2022-10-12T02:24:55;101349.22;;;7.34;81.51
72558;BME280;60583;50.094;8.748;2022-10-12T02:27:23;101343.84;;;7.26;80.93
72558;BME280;60583;50.094;8.748;2022-10-12T02:29:50;101350.69;;;7.29;81.99
72558;BME280;60583;50.094;8.748;2022-10-12T02:32:22;101348.25;;;7.18;82.89
72558;BME280;60583;50.094;8.748;2022-10-12T02:37:44;101337.72;;;7.26;82.55
72558;BME280;60583;50.094;8.748;2022-10-12T02:40:40;101335.59;;;7.29;81.68
72558;BME280;60583;50.094;8.748;2022-10-12T02:43:16;101341.13;;;7.18;82.47
72558;BME280;60583;50.094;8.748;2022-10-12T02:45:45;101338.19;;;7.21;82.22
72558;BME280;60583;50.094;8.748;2022-10-12T02:48:16;101332.19;;;7.19;82.24
72558;BME280;60583;50.094;8.748;2022-10-12T02:50:45;101313.75;;;7.35;81.54
72558;BME280;60583;50.094;8.748;2022-10-12T02:53:12;101332.28;;;7.27;82.56
72558;BME280;60583;50.094;8.748;2022-10-12T02:55:46;101330.38;;;7.20;82.40
72558;BME280;60583;50.094;8.748;2022-10-12T02:58:12;101322.34;;;7.29;83.09
72558;BME280;60583;50.094;8.748;2022-10-12T03:00:38;101331.03;;;7.39;81.91
72558;BME280;60583;50.094;8.748;2022-10-12T03:03:03;101315.47;;;7.44;81.96
72558;BME280;60583;50.094;8.748;2022-10-12T03:05:28;101323.03;;;7.57;80.87
72558;BME280;60583;50.094;8.748;2022-10-12T03:07:54;101324.00;;;7.56;81.23
72558;BME280;60583;50.094;8.748;2022-10-12T03:10:19;101321.81;;;7.51;81.18
72558;BME280;60583;50.094;8.748;2022-10-12T03:12:44;101339.38;;;7.44;81.68
72558;BME280;60583;50.094;8.748;2022-10-12T03:15:10;101328.00;;;7.34;81.54
72558;BME280;60583;50.094;8.748;2022-10-12T03:17:36;101340.53;;;7.24;81.77
72558;BME280;60583;50.094;8.748;2022-10-12T03:20:01;101336.19;;;7.23;82.00
72558;BME280;60583;50.094;8.748;2022-10-12T03:22:26;101345.56;;;7.35;82.00
72558;BME280;60583;50.094;8.748;2022-10-12T03:24:52;101342.78;;;7.37;81.49
72558;BME280;60583;50.094;8.748;2022-10-12T03:27:17;101349.22;;;7.34;82.47
72558;BME280;60583;50.094;8.748;2022-10-12T03:29:42;101339.78;;;7.14;82.09
72558;BME280;60583;50.094;8.748;2022-10-12T03:32:08;101338.34;;;7.02;83.40
72558;BME280;60583;50.094;8.748;2022-10-12T03:34:33;101343.66;;;7.02;83.83
72558;BME280;60583;50.094;8.748;2022-10-12T03:36:59;101349.34;;;7.07;83.05
72558;BME280;60583;50.094;8.748;2022-10-12T03:39:24;101342.56;;;6.95;83.07
72558;BME280;60583;50.094;8.748;2022-10-12T03:41:49;101343.66;;;6.84;84.12
72558;BME280;60583;50.094;8.748;2022-10-12T03:44:15;101348.63;;;7.05;83.20
72558;BME280;60583;50.094;8.748;2022-10-12T03:46:40;101343.03;;;7.08;83.49
72558;BME280;60583;50.094;8.748;2022-10-12T03:49:05;101341.28;;;7.17;83.01
72558;BME280;60583;50.094;8.748;2022-10-12T03:51:31;101327.72;;;7.20;81.97
72558;BME280;60583;50.094;8.748;2022-10-12T03:53:56;101332.78;;;7.31;81.76
72558;BME280;60583;50.094;8.748;2022-10-12T03:56:22;101332.00;;;7.38;80.97
72558;BME280;60583;50.094;8.748;2022-10-12T03:58:47;101336.50;;;7.20;82.03
72558;BME280;60583;50.094;8.748;2022-10-12T04:01:12;101327.78;;;7.10;82.56
72558;BME280;60583;50.094;8.748;2022-10-12T04:03:38;101340.00;;;7.21;82.60
72558;BME280;60583;50.094;8.748;2022-10-12T04:06:03;101334.09;;;7.09;82.60
72558;BME280;60583;50.094;8.748;2022-10-12T04:08:29;101331.84;;;6.79;83.92
72558;BME280;60583;50.094;8.748;2022-10-12T04:10:55;101330.06;;;6.87;83.46
72558;BME280;60583;50.094;8.748;2022-10-12T04:13:20;101336.31;;;6.96;83.07
72558;BME280;60583;50.094;8.748;2022-10-12T04:15:46;101332.69;;;6.97;82.34
72558;BME280;60583;50.094;8.748;2022-10-12T04:18:11;101344.03;;;7.07;82.90
72558;BME280;60583;50.094;8.748;2022-10-12T04:20:37;101343.41;;;7.13;82.00
72558;BME280;60583;50.094;8.748;2022-10-12T04:23:02;101327.59;;;7.03;82.23
72558;BME280;60583;50.094;8.748;2022-10-12T04:25:28;101342.28;;;7.16;82.22
72558;BME280;60583;50.094;8.748;2022-10-12T04:27:53;101338.41;;;7.10;82.56
72558;BME280;60583;50.094;8.748;2022-10-12T04:30:18;101329.66;;;6.92;83.56
72558;BME280;60583;50.094;8.748;2022-10-12T04:32:44;101335.75;;;6.75;83.78
72558;BME280;60583;50.094;8.748;2022-10-12T04:35:09;101331.91;;;6.69;83.80
72558;BME280;60583;50.094;8.748;2022-10-12T04:37:35;101345.97;;;6.70;84.12
72558;BME280;60583;50.094;8.748;2022-10-12T04:40:00;101344.41;;;6.77;84.15
72558;BME280;60583;50.094;8.748;2022-10-12T04:42:27;101344.84;;;6.72;83.80
72558;BME280;60583;50.094;8.748;2022-10-12T04:44:52;101343.50;;;6.86;83.52
72558;BME280;60583;50.094;8.748;2022-10-12T04:47:18;101342.34;;;6.88;83.64
72558;BME280;60583;50.094;8.748;2022-10-12T04:49:43;101346.22;;;6.94;83.61
72558;BME280;60583;50.094;8.748;2022-10-12T04:52:09;101344.25;;;6.96;82.58
72558;BME280;60583;50.094;8.748;2022-10-12T04:54:34;101346.75;;;6.97;83.04
72558;BME280;60583;50.094;8.748;2022-10-12T04:57:00;101339.31;;;6.83;83.41
72558;BME280;60583;50.094;8.748;2022-10-12T04:59:25;101339.09;;;6.77;82.81
72558;BME280;60583;50.094;8.748;2022-10-12T05:01:51;101339.78;;;6.79;83.55
72558;BME280;60583;50.094;8.748;2022-10-12T05:04:18;101343.66;;;6.67;83.00
72558;BME280;60583;50.094;8.748;2022-10-12T05:06:44;101350.09;;;6.55;84.06
72558;BME280;60583;50.094;8.748;2022-10-12T05:09:09;101343.28;;;6.52;84.19
72558;BME280;60583;50.094;8.748;2022-10-12T05:11:34;101350.44;;;6.52;84.81
72558;BME280;60583;50.094;8.748;2022-10-12T05:14:00;101347.47;;;6.55;84.44
72558;BME280;60583;50.094;8.748;2022-10-12T05:16:25;101342.81;;;6.66;84.25
72558;BME280;60583;50.094;8.748;2022-10-12T05:18:50;101346.13;;;6.68;83.86
72558;BME280;60583;50.094;8.748;2022-10-12T05:21:16;101342.44;;;6.79;83.97
72558;BME280;60583;50.094;8.748;2022-10-12T05:23:41;101349.78;;;6.85;83.70
72558;BME280;60583;50.094;8.748;2022-10-12T05:26:07;101344.03;;;6.89;83.16
72558;BME280;60583;50.094;8.748;2022-10-12T05:28:33;101356.59;;;6.87;82.67
72558;BME280;60583;50.094;8.748;2022-10-12T05:30:58;101344.34;;;6.86;83.20
72558;BME280;60583;50.094;8.748;2022-10-12T05:33:24;101358.19;;;6.98;82.83
72558;BME280;60583;50.094;8.748;2022-10-12T05:35:49;101355.84;;;6.95;82.82
72558;BME280;60583;50.094;8.748;2022-10-12T05:38:15;101350.16;;;6.90;83.18
72558;BME280;60583;50.094;8.748;2022-10-12T05:40:40;101344.47;;;7.02;82.30
72558;BME280;60583;50.094;8.748;2022-10-12T05:43:05;101349.00;;;7.10;82.21
72558;BME280;60583;50.094;8.748;2022-10-12T05:45:31;101348.72;;;7.13;82.55
72558;BME280;60583;50.094;8.748;2022-10-12T05:47:56;101348.19;;;7.10;82.37
72558;BME280;60583;50.094;8.748;2022-10-12T05:50:22;101348.34;;;7.08;81.76
72558;BME280;60583;50.094;8.748;2022-10-12T05:52:47;101336.97;;;7.16;82.71
72558;BME280;60583;50.094;8.748;2022-10-12T05:55:13;101349.09;;;7.18;82.38
72558;BME280;60583;50.094;8.748;2022-10-12T05:57:38;101341.31;;;6.99;82.60
72558;BME280;60583;50.094;8.748;2022-10-12T06:00:06;101350.59;;;7.03;82.22
72558;BME280;60583;50.094;8.748;2022-10-12T06:02:33;101337.28;;;6.95;82.73
72558;BME280;60583;50.094;8.748;2022-10-12T06:04:58;101335.44;;;7.13;82.65
72558;BME280;60583;50.094;8.748;2022-10-12T06:07:24;101341.13;;;7.18;82.08
72558;BME280;60583;50.094;8.748;2022-10-12T06:09:49;101350.13;;;7.25;81.80
72558;BME280;60583;50.094;8.748;2022-10-12T06:12:15;101313.19;;;7.06;81.33
72558;BME280;60583;50.094;8.748;2022-10-12T06:14:40;101343.28;;;7.40;81.40
72558;BME280;60583;50.094;8.748;2022-10-12T06:17:06;101348.97;;;7.45;79.90
72558;BME280;60583;50.094;8.748;2022-10-12T06:19:33;101352.47;;;7.46;81.01
72558;BME280;60583;50.094;8.748;2022-10-12T06:21:58;101336.78;;;7.52;80.11
72558;BME280;60583;50.094;8.748;2022-10-12T06:24:23;101336.66;;;7.62;80.59
72558;BME280;60583;50.094;8.748;2022-10-12T06:26:49;101341.19;;;7.69;82.33
72558;BME280;60583;50.094;8.748;2022-10-12T06:29:14;101334.88;;;7.70;81.34
72558;BME280;60583;50.094;8.748;2022-10-12T06:31:40;101347.00;;;7.73;82.12
72558;BME280;60583;50.094;8.748;2022-10-12T06:34:05;101332.09;;;7.72;79.88
72558;BME280;60583;50.094;8.748;2022-10-12T06:36:31;101342.47;;;7.65;80.88
72558;BME280;60583;50.094;8.748;2022-10-12T06:38:56;101350.81;;;7.70;81.57
72558;BME280;60583;50.094;8.748;2022-10-12T06:41:21;101348.22;;;7.79;80.12
72558;BME280;60583;50.094;8.748;2022-10-12T06:43:47;101345.38;;;8.06;81.44
72558;BME280;60583;50.094;8.748;2022-10-12T06:46:12;101345.72;;;8.03;79.46
72558;BME280;60583;50.094;8.748;2022-10-12T06:48:38;101337.88;;;8.01;78.98
72558;BME280;60583;50.094;8.748;2022-10-12T06:51:03;101347.56;;;8.10;78.76
72558;BME280;60583;50.094;8.748;2022-10-12T06:53:29;101336.47;;;8.15;78.61
72558;BME280;60583;50.094;8.748;2022-10-12T06:55:57;101341.59;;;8.16;78.31
72558;BME280;60583;50.094;8.748;2022-10-12T06:58:23;101347.88;;;8.41;78.96
72558;BME280;60583;50.094;8.748;2022-10-12T07:00:48;101341.06;;;8.39;77.80
72558;BME280;60583;50.094;8.748;2022-10-12T07:03:13;101342.59;;;8.49;77.76
72558;BME280;60583;50.094;8.748;2022-10-12T07:05:39;101335.00;;;8.62;77.25
72558;BME280;60583;50.094;8.748;2022-10-12T07:08:04;101334.84;;;8.72;76.33
72558;BME280;60583;50.094;8.748;2022-10-12T07:10:30;101338.38;;;8.88;75.27
72558;BME280;60583;50.094;8.748;2022-10-12T07:12:55;101338.38;;;9.05;74.75
72558;BME280;60583;50.094;8.748;2022-10-12T07:15:20;101338.56;;;9.11;75.02
72558;BME280;60583;50.094;8.748;2022-10-12T07:17:46;101347.38;;;9.28;74.68
72558;BME280;60583;50.094;8.748;2022-10-12T07:20:11;101350.38;;;9.41;74.44
72558;BME280;60583;50.094;8.748;2022-10-12T07:22:37;101339.03;;;9.47;73.99
72558;BME280;60583;50.094;8.748;2022-10-12T07:25:02;101328.56;;;9.53;73.34
72558;BME280;60583;50.094;8.748;2022-10-12T07:27:28;101344.69;;;9.52;73.46
72558;BME280;60583;50.094;8.748;2022-10-12T07:29:53;101337.53;;;9.69;72.40
72558;BME280;60583;50.094;8.748;2022-10-12T07:32:19;101350.13;;;9.99;71.41
72558;BME280;60583;50.094;8.748;2022-10-12T07:34:44;101357.47;;;9.81;71.20
72558;BME280;60583;50.094;8.748;2022-10-12T07:37:10;101349.94;;;9.92;71.47
72558;BME280;60583;50.094;8.748;2022-10-12T07:39:35;101357.44;;;9.97;70.72
72558;BME280;60583;50.094;8.748;2022-10-12T07:42:02;101350.31;;;9.89;70.47
72558;BME280;60583;50.094;8.748;2022-10-12T07:44:27;101353.09;;;10.04;71.17
72558;BME280;60583;50.094;8.748;2022-10-12T07:46:55;101347.22;;;10.24;70.37
72558;BME280;60583;50.094;8.748;2022-10-12T07:49:20;101346.75;;;10.05;70.46
72558;BME280;60583;50.094;8.748;2022-10-12T07:51:46;101353.09;;;10.04;71.34
72558;BME280;60583;50.094;8.748;2022-10-12T07:54:12;101352.56;;;10.24;71.04
72558;BME280;60583;50.094;8.748;2022-10-12T07:56:38;101348.75;;;10.50;70.89
72558;BME280;60583;50.094;8.748;2022-10-12T07:59:03;101349.03;;;10.63;69.20
72558;BME280;60583;50.094;8.748;2022-10-12T08:01:29;101346.00;;;10.66;69.46
72558;BME280;60583;50.094;8.748;2022-10-12T08:03:57;101354.69;;;10.90;69.37
72558;BME280;60583;50.094;8.748;2022-10-12T08:06:25;101344.06;;;11.05;68.80
72558;BME280;60583;50.094;8.748;2022-10-12T08:08:51;101354.47;;;11.00;69.50
72558;BME280;60583;50.094;8.748;2022-10-12T08:11:18;101341.25;;;11.07;69.57
72558;BME280;60583;50.094;8.748;2022-10-12T08:13:44;101353.50;;;11.38;68.42
72558;BME280;60583;50.094;8.748;2022-10-12T08:16:13;101348.41;;;11.29;67.97
72558;BME280;60583;50.094;8.748;2022-10-12T08:18:39;101359.34;;;11.57;68.78
72558;BME280;60583;50.094;8.748;2022-10-12T08:21:07;101351.19;;;11.35;67.57
72558;BME280;60583;50.094;8.748;2022-10-12T08:23:34;101354.16;;;11.40;68.99
72558;BME280;60583;50.094;8.748;2022-10-12T08:26:00;101356.84;;;11.78;67.47
72558;BME280;60583;50.094;8.748;2022-10-12T08:28:26;101354.31;;;11.62;67.70
72558;BME280;60583;50.094;8.748;2022-10-12T08:30:51;101351.28;;;11.65;67.60
72558;BME280;60583;50.094;8.748;2022-10-12T08:33:17;101347.44;;;11.82;67.75
72558;BME280;60583;50.094;8.748;2022-10-12T08:35:43;101355.69;;;11.58;67.85
72558;BME280;60583;50.094;8.748;2022-10-12T08:38:11;101354.63;;;11.44;68.07
72558;BME280;60583;50.094;8.748;2022-10-12T08:40:48;101339.72;;;11.72;68.55
72558;BME280;60583;50.094;8.748;2022-10-12T08:45:53;101352.63;;;11.98;66.96
72558;BME280;60583;50.094;8.748;2022-10-12T08:48:41;101341.84;;;12.06;67.71
72558;BME280;60583;50.094;8.748;2022-10-12T08:51:16;101343.50;;;12.07;68.02
72558;BME280;60583;50.094;8.748;2022-10-12T08:53:49;101343.50;;;12.07;67.31
72558;BME280;60583;50.094;8.748;2022-10-12T08:56:17;101343.03;;;12.03;67.47
72558;BME280;60583;50.094;8.748;2022-10-12T08:58:44;101342.03;;;12.04;67.53
72558;BME280;60583;50.094;8.748;2022-10-12T09:07:16;101341.38;;;12.67;66.46
72558;BME280;60583;50.094;8.748;2022-10-12T09:15:33;101336.59;;;12.99;65.54
72558;BME280;60583;50.094;8.748;2022-10-12T09:18:00;101341.34;;;12.82;66.21
72558;BME280;60583;50.094;8.748;2022-10-12T09:20:48;101338.50;;;13.05;66.00
72558;BME280;60583;50.094;8.748;2022-10-12T09:26:28;101340.31;;;13.68;62.98
72558;BME280;60583;50.094;8.748;2022-10-12T09:28:54;101332.47;;;14.00;61.99
72558;BME280;60583;50.094;8.748;2022-10-12T09:31:47;101339.22;;;14.65;60.46
72558;BME280;60583;50.094;8.748;2022-10-12T09:34:16;101336.22;;;15.86;57.02
72558;BME280;60583;50.094;8.748;2022-10-12T09:36:41;101323.81;;;15.85;55.86
72558;BME280;60583;50.094;8.748;2022-10-12T09:39:15;101332.03;;;17.36;51.82
72558;BME280;60583;50.094;8.748;2022-10-12T09:41:43;101332.63;;;18.24;50.04
72558;BME280;60583;50.094;8.748;2022-10-12T09:44:17;101321.72;;;18.96;47.90
72558;BME280;60583;50.094;8.748;2022-10-12T09:46:57;101328.09;;;19.90;45.24
72558;BME280;60583;50.094;8.748;2022-10-12T09:49:48;101323.78;;;20.52;42.86
72558;BME280;60583;50.094;8.748;2022-10-12T09:52:20;101308.41;;;20.69;43.46
72558;BME280;60583;50.094;8.748;2022-10-12T09:54:51;101315.78;;;20.45;42.87
72558;BME280;60583;50.094;8.748;2022-10-12T09:57:28;101312.53;;;21.16;40.82
72558;BME280;60583;50.094;8.748;2022-10-12T09:59:54;101310.69;;;21.88;40.56
72558;BME280;60583;50.094;8.748;2022-10-12T10:02:22;101302.31;;;22.55;39.00
72558;BME280;60583;50.094;8.748;2022-10-12T10:04:49;101307.22;;;23.06;38.30
72558;BME280;60583;50.094;8.748;2022-10-12T10:10:17;101294.00;;;22.88;38.44
72558;BME280;60583;50.094;8.748;2022-10-12T10:12:55;101298.91;;;22.64;38.73
72558;BME280;60583;50.094;8.748;2022-10-12T10:15:29;101299.78;;;24.69;35.81
72558;BME280;60583;50.094;8.748;2022-10-12T10:17:58;101293.03;;;24.92;34.39
72558;BME280;60583;50.094;8.748;2022-10-12T10:20:55;101284.75;;;22.89;38.18
72558;BME280;60583;50.094;8.748;2022-10-12T10:23:31;101291.38;;;24.08;35.91
72558;BME280;60583;50.094;8.748;2022-10-12T10:26:05;101285.94;;;25.26;33.84
72558;BME280;60583;50.094;8.748;2022-10-12T10:28:34;101287.50;;;25.92;32.87
72558;BME280;60583;50.094;8.748;2022-10-12T10:33:29;101293.19;;;26.16;31.87
72558;BME280;60583;50.094;8.748;2022-10-12T10:38:29;101280.25;;;26.86;30.92
72558;BME280;60583;50.094;8.748;2022-10-12T10:40:55;101289.81;;;27.79;30.10
72558;BME280;60583;50.094;8.748;2022-10-12T10:43:29;101289.53;;;27.23;30.71
72558;BME280;60583;50.094;8.748;2022-10-12T10:45:58;101289.13;;;27.69;29.34
72558;BME280;60583;50.094;8.748;2022-10-12T10:48:50;101284.16;;;26.06;32.38
72558;BME280;60583;50.094;8.748;2022-10-12T10:51:15;101277.81;;;27.18;31.60
72558;BME280;60583;50.094;8.748;2022-10-12T10:53:44;101289.72;;;28.37;29.56
72558;BME280;60583;50.094;8.748;2022-10-12T10:56:14;101274.31;;;28.97;28.26
72558;BME280;60583;50.094;8.748;2022-10-12T10:58:44;101270.56;;;29.06;28.39
72558;BME280;60583;50.094;8.748;2022-10-12T11:01:24;101264.59;;;29.37;27.97
72558;BME280;60583;50.094;8.748;2022-10-12T11:03:57;101254.34;;;28.73;28.13
72558;BME280;60583;50.094;8.748;2022-10-12T11:06:46;101261.66;;;28.40;28.79
72558;BME280;60583;50.094;8.748;2022-10-12T11:09:20;101258.41;;;29.13;27.88
72558;BME280;60583;50.094;8.748;2022-10-12T11:11:55;101234.22;;;28.40;29.53
72558;BME280;60583;50.094;8.748;2022-10-12T11:14:32;101250.56;;;28.87;28.89
72558;BME280;60583;50.094;8.748;2022-10-12T11:17:21;101247.72;;;29.57;27.48
72558;BME280;60583;50.094;8.748;2022-10-12T11:19:52;101236.31;;;29.50;27.33
72558;BME280;60583;50.094;8.748;2022-10-12T11:22:28;101241.44;;;28.73;29.13
72558;BME280;60583;50.094;8.748;2022-10-12T11:25:18;101246.31;;;30.14;27.45
72558;BME280;60583;50.094;8.748;2022-10-12T11:27:46;101237.59;;;29.39;28.33
72558;BME280;60583;50.094;8.748;2022-10-12T11:30:17;101233.75;;;29.40;28.20
72558;BME280;60583;50.094;8.748;2022-10-12T11:32:53;101231.66;;;29.78;27.81
72558;BME280;60583;50.094;8.748;2022-10-12T11:35:27;101223.69;;;28.84;28.63
72558;BME280;60583;50.094;8.748;2022-10-12T11:37:57;101220.78;;;29.27;28.65
72558;BME280;60583;50.094;8.748;2022-10-12T11:40:27;101219.69;;;30.37;27.68
72558;BME280;60583;50.094;8.748;2022-10-12T11:42:54;101210.44;;;30.77;27.25
72558;BME280;60583;50.094;8.748;2022-10-12T11:45:29;101217.31;;;31.32;26.57
72558;BME280;60583;50.094;8.748;2022-10-12T11:48:01;101213.41;;;31.55;26.03
72558;BME280;60583;50.094;8.748;2022-10-12T11:50:36;101209.09;;;31.72;25.89
72558;BME280;60583;50.094;8.748;2022-10-12T11:53:06;101210.53;;;31.78;26.14
72558;BME280;60583;50.094;8.748;2022-10-12T11:55:50;101212.09;;;32.01;25.80
72558;BME280;60583;50.094;8.748;2022-10-12T11:58:27;101206.66;;;31.79;25.33
72558;BME280;60583;50.094;8.748;2022-10-12T12:11:47;101176.94;;;30.03;28.47
72558;BME280;60583;50.094;8.748;2022-10-12T12:17:46;101176.34;;;29.79;28.53
72558;BME280;60583;50.094;8.748;2022-10-12T12:19:52;101178.72;;;27.35;32.84
72558;BME280;60583;50.094;8.748;2022-10-12T12:27:44;101171.19;;;24.20;39.71
72558;BME280;60583;50.094;8.748;2022-10-12T12:32:48;101170.38;;;23.53;42.10
72558;BME280;60583;50.094;8.748;2022-10-12T12:35:36;101160.66;;;24.84;39.23
72558;BME280;60583;50.094;8.748;2022-10-12T12:38:14;101166.03;;;24.19;40.49
72558;BME280;60583;50.094;8.748;2022-10-12T12:41:03;101159.50;;;23.58;42.04
72558;BME280;60583;50.094;8.748;2022-10-12T12:45:57;101167.28;;;22.12;45.83
72558;BME280;60583;50.094;8.748;2022-10-12T12:51:14;101164.81;;;21.45;47.11
72558;BME280;60583;50.094;8.748;2022-10-12T12:53:48;101164.53;;;21.25;48.14
72558;BME280;60583;50.094;8.748;2022-10-12T13:07:59;101169.88;;;20.54;51.99
72558;BME280;60583;50.094;8.748;2022-10-12T13:13:02;101171.25;;;20.11;52.99
72558;BME280;60583;50.094;8.748;2022-10-12T13:15:54;101169.50;;;20.05;53.59
72558;BME280;60583;50.094;8.748;2022-10-12T13:21:24;101166.41;;;19.73;54.99
72558;BME280;60583;50.094;8.748;2022-10-12T13:23:55;101152.31;;;19.60;54.82
72558;BME280;60583;50.094;8.748;2022-10-12T13:26:24;101156.91;;;19.59;54.91
72558;BME280;60583;50.094;8.748;2022-10-12T13:28:52;101162.69;;;19.51;55.80
72558;BME280;60583;50.094;8.748;2022-10-12T13:31:24;101150.09;;;19.57;56.00
72558;BME280;60583;50.094;8.748;2022-10-12T13:34:11;101145.88;;;19.49;56.08
72558;BME280;60583;50.094;8.748;2022-10-12T13:36:57;101133.63;;;19.47;55.62
72558;BME280;60583;50.094;8.748;2022-10-12T13:39:24;101135.16;;;19.31;55.97
72558;BME280;60583;50.094;8.748;2022-10-12T13:41:53;101130.34;;;19.22;56.02
72558;BME280;60583;50.094;8.748;2022-10-12T13:44:20;101140.22;;;19.16;56.28
72558;BME280;60583;50.094;8.748;2022-10-12T13:46:49;101139.88;;;19.36;56.55
72558;BME280;60583;50.094;8.748;2022-10-12T13:49:32;101134.34;;;19.19;56.60
72558;BME280;60583;50.094;8.748;2022-10-12T13:52:16;101146.81;;;19.32;56.19
72558;BME280;60583;50.094;8.748;2022-10-12T13:54:45;101140.56;;;19.31;56.97
72558;BME280;60583;50.094;8.748;2022-10-12T13:59:42;101135.28;;;19.25;56.96
72558;BME280;60583;50.094;8.748;2022-10-12T14:02:17;101135.41;;;19.30;57.57
72558;BME280;60583;50.094;8.748;2022-10-12T14:04:45;101133.41;;;19.37;56.88
72558;BME280;60583;50.094;8.748;2022-10-12T14:07:18;101118.59;;;19.28;56.90
72558;BME280;60583;50.094;8.748;2022-10-12T14:09:47;101116.94;;;19.27;56.71
72558;BME280;60583;50.094;8.748;2022-10-12T14:12:16;101110.25;;;19.18;56.95
72558;BME280;60583;50.094;8.748;2022-10-12T14:14:43;101115.09;;;19.16;56.44
72558;BME280;60583;50.094;8.748;2022-10-12T14:17:14;101111.66;;;19.08;57.56
72558;BME280;60583;50.094;8.748;2022-10-12T14:22:05;101121.44;;;19.09;57.83
72558;BME280;60583;50.094;8.748;2022-10-12T14:24:34;101121.22;;;18.99;58.23
72558;BME280;60583;50.094;8.748;2022-10-12T14:27:02;101128.16;;;18.95;58.43
72558;BME280;60583;50.094;8.748;2022-10-12T14:29:40;101122.84;;;18.77;59.68
72558;BME280;60583;50.094;8.748;2022-10-12T14:34:41;101121.91;;;18.72;59.28
72558;BME280;60583;50.094;8.748;2022-10-12T14:39:37;101122.22;;;18.52;59.66
72558;BME280;60583;50.094;8.748;2022-10-12T14:42:17;101128.22;;;18.54;59.38